Terminal Aerodrome Forecast
Issued by NWS

Home | Current Version | Previous Version | Text Only | Print | Product List | Glossary On
Versions: 1 2 3 4 5 6 7 8 9 10 11 12 13 14 15 16 17 18 19 20
219
FTUS45 KABQ 191738
TAFROW
TAF
KROW 191738Z 1918/2018 24008KT P6SM SKC
     FM191900 27017G27KT P6SM BKN200
     FM200800 25013KT P6SM SCT150
     FM201600 23010G17KT P6SM SKC=

USA.gov is the U.S. government's official web portal to all federal, state and local government web resources and services.